Airfield :
LOGIN :

Register | Disclaimer

   EN    FR    IT 

 










Legend :    VFR   Marginal VFR   IFR   Intensive IFR   Very Intensive IFR
Visi :
Ceiling :
>= 8 km
>= 3000ft
5 to 8 km
1000 to 3000 ft
1500m to 5 km
500 to 1000 ft
800 to 1500m
200 to 500 ft
< 800m
< 200 ft
Symbols :   Thunderstorms  Fog  Heavy snow  Heavy precipitations  Wind > 20 kt
SIGMETs :     Misc.  Thunderstorms  Icing  Turbulence  Mountain Waves  Volcanic Ashes






- Airport Elevation : 386 ft
- IATA code : QOE


ETNN - Nörvenich Airforce Base

CURRENT METAR :
  • 220720Z 14007KT 9999 BKN020 BKN140 06/04 Q1006 WHT BLU TEMPO WHT

EXPIRED METARs :
  • 220620Z 13004KT 9999 SCT050 BKN090 05/03 Q1006 BLU BLU TEMPO WHT
  • 220520Z 12007KT 9999 SCT050 BKN080 05/03 Q1005 BLU BLU TEMPO WHT

TAF TAF ETNN
Valid from the 22 at 06:00 until the 22 at 15:00 UTC


220515Z 2206/2215 12010KT 9999 NSW BKN030
TEMPO 2206/2210 12005KT 9999 NSW BKN020
PROB30 2206/2208 18010G20KT 4000 -SHRA BKN015TCU BY ETGL



MET'MAP, your aeronautical weather chart ! - Copyright ORBIFLY December 2007 - Disclaimer

ORBIFLY MET'MAP TEAM :

Programming & Development : Alexandra Zaïnal
Concept & Development : Baudouin d'Aumeries
Co-Development & Prog : Marc-Olivier Méhu
Technical & hardware support : Manuel Goepfert

Contact : metmap@orbifly.com




SOURCES & CREDITS :

   NOAA